sensor_id;sensor_type;location;lat;lon;timestamp;pressure;altitude;pressure_sealevel;temperature;humidity
65897;BME280;52677;50.898;10.854;2023-05-19T00:01:42;99423.50;;;7.38;100.00
65897;BME280;52677;50.898;10.854;2023-05-19T00:03:54;99421.72;;;7.33;100.00
65897;BME280;52677;50.898;10.854;2023-05-19T00:05:57;99419.66;;;7.30;100.00
65897;BME280;52677;50.898;10.854;2023-05-19T00:07:58;99424.69;;;7.28;100.00
65897;BME280;52677;50.898;10.854;2023-05-19T00:10:00;99417.88;;;7.26;100.00
65897;BME280;52677;50.898;10.854;2023-05-19T00:12:00;99414.78;;;7.27;100.00
65897;BME280;52677;50.898;10.854;2023-05-19T00:14:02;99419.38;;;7.23;100.00
65897;BME280;52677;50.898;10.854;2023-05-19T00:16:03;99412.75;;;7.16;100.00
65897;BME280;52677;50.898;10.854;2023-05-19T00:18:05;99415.69;;;7.11;100.00
65897;BME280;52677;50.898;10.854;2023-05-19T00:20:08;99416.53;;;7.02;100.00
65897;BME280;52677;50.898;10.854;2023-05-19T00:22:08;99410.09;;;6.98;100.00
65897;BME280;52677;50.898;10.854;2023-05-19T00:24:08;99397.66;;;6.92;100.00
65897;BME280;52677;50.898;10.854;2023-05-19T00:26:09;99406.13;;;6.87;100.00
65897;BME280;52677;50.898;10.854;2023-05-19T00:28:10;99406.31;;;6.82;100.00
65897;BME280;52677;50.898;10.854;2023-05-19T00:30:10;99409.38;;;6.81;100.00
65897;BME280;52677;50.898;10.854;2023-05-19T00:32:10;99408.25;;;6.82;100.00
65897;BME280;52677;50.898;10.854;2023-05-19T00:34:11;99407.63;;;6.76;100.00
65897;BME280;52677;50.898;10.854;2023-05-19T00:36:11;99400.50;;;6.75;100.00
65897;BME280;52677;50.898;10.854;2023-05-19T00:38:12;99400.84;;;6.73;100.00
65897;BME280;52677;50.898;10.854;2023-05-19T00:40:12;99403.59;;;6.73;100.00
65897;BME280;52677;50.898;10.854;2023-05-19T00:42:12;99407.63;;;6.76;100.00
65897;BME280;52677;50.898;10.854;2023-05-19T00:44:13;99405.66;;;6.76;100.00
65897;BME280;52677;50.898;10.854;2023-05-19T00:46:13;99403.59;;;6.73;100.00
65897;BME280;52677;50.898;10.854;2023-05-19T00:48:14;99405.53;;;6.73;100.00
65897;BME280;52677;50.898;10.854;2023-05-19T00:50:14;99404.72;;;6.72;100.00
65897;BME280;52677;50.898;10.854;2023-05-19T00:52:15;99402.78;;;6.73;100.00
65897;BME280;52677;50.898;10.854;2023-05-19T00:54:15;99398.22;;;6.77;100.00
65897;BME280;52677;50.898;10.854;2023-05-19T00:56:17;99406.81;;;6.75;100.00
65897;BME280;52677;50.898;10.854;2023-05-19T00:58:18;99404.06;;;6.75;100.00
65897;BME280;52677;50.898;10.854;2023-05-19T01:00:19;99400.50;;;6.75;100.00
65897;BME280;52677;50.898;10.854;2023-05-19T01:02:19;99402.13;;;6.76;100.00
65897;BME280;52677;50.898;10.854;2023-05-19T01:04:20;99403.72;;;6.77;100.00
65897;BME280;52677;50.898;10.854;2023-05-19T01:06:21;99393.22;;;6.79;100.00
65897;BME280;52677;50.898;10.854;2023-05-19T01:08:21;99402.75;;;6.82;100.00
65897;BME280;52677;50.898;10.854;2023-05-19T01:10:22;99395.97;;;6.79;100.00
65897;BME280;52677;50.898;10.854;2023-05-19T01:12:23;99401.31;;;6.75;100.00
65897;BME280;52677;50.898;10.854;2023-05-19T01:14:24;99395.19;;;6.70;100.00
65897;BME280;52677;50.898;10.854;2023-05-19T01:16:33;99400.53;;;6.66;100.00
65897;BME280;52677;50.898;10.854;2023-05-19T01:18:46;99401.22;;;6.63;100.00
65897;BME280;52677;50.898;10.854;2023-05-19T01:20:55;99400.56;;;6.58;100.00
65897;BME280;52677;50.898;10.854;2023-05-19T01:23:11;99393.59;;;6.60;100.00
65897;BME280;52677;50.898;10.854;2023-05-19T01:32:18;99392.47;;;6.61;100.00
65897;BME280;52677;50.898;10.854;2023-05-19T01:34:22;99390.03;;;6.60;100.00
65897;BME280;52677;50.898;10.854;2023-05-19T01:36:25;99388.78;;;6.57;100.00
65897;BME280;52677;50.898;10.854;2023-05-19T01:38:27;99389.94;;;6.47;100.00
65897;BME280;52677;50.898;10.854;2023-05-19T01:40:29;99396.88;;;6.45;100.00
65897;BME280;52677;50.898;10.854;2023-05-19T01:42:30;99402.56;;;6.40;100.00
65897;BME280;52677;50.898;10.854;2023-05-19T01:44:36;99399.03;;;6.39;100.00
65897;BME280;52677;50.898;10.854;2023-05-19T01:46:37;99393.34;;;6.36;100.00
65897;BME280;52677;50.898;10.854;2023-05-19T01:48:37;99389.16;;;6.38;100.00
65897;BME280;52677;50.898;10.854;2023-05-19T01:50:39;99398.06;;;6.35;100.00
65897;BME280;52677;50.898;10.854;2023-05-19T01:52:40;99400.19;;;6.30;100.00
65897;BME280;52677;50.898;10.854;2023-05-19T01:54:40;99408.94;;;6.23;100.00
65897;BME280;52677;50.898;10.854;2023-05-19T01:56:51;99401.19;;;6.16;100.00
65897;BME280;52677;50.898;10.854;2023-05-19T01:58:57;99402.78;;;6.17;100.00
65897;BME280;52677;50.898;10.854;2023-05-19T02:01:13;99394.72;;;6.21;100.00
65897;BME280;52677;50.898;10.854;2023-05-19T02:05:32;99391.78;;;6.17;100.00
65897;BME280;52677;50.898;10.854;2023-05-19T02:07:40;99389.84;;;6.18;100.00
65897;BME280;52677;50.898;10.854;2023-05-19T02:09:56;99380.16;;;6.12;100.00
65897;BME280;52677;50.898;10.854;2023-05-19T02:12:19;99397.47;;;6.12;100.00
65897;BME280;52677;50.898;10.854;2023-05-19T02:16:32;99391.97;;;6.12;100.00
65897;BME280;52677;50.898;10.854;2023-05-19T02:18:33;99375.78;;;6.19;100.00
65897;BME280;52677;50.898;10.854;2023-05-19T02:20:34;99380.63;;;6.23;100.00
65897;BME280;52677;50.898;10.854;2023-05-19T02:22:35;99373.19;;;6.23;100.00
65897;BME280;52677;50.898;10.854;2023-05-19T02:24:35;99378.53;;;6.19;100.00
65897;BME280;52677;50.898;10.854;2023-05-19T02:26:36;99381.13;;;6.16;100.00
65897;BME280;52677;50.898;10.854;2023-05-19T02:28:37;99383.25;;;6.10;100.00
65897;BME280;52677;50.898;10.854;2023-05-19T02:30:37;99368.56;;;6.06;100.00
65897;BME280;52677;50.898;10.854;2023-05-19T02:32:37;99379.06;;;6.04;100.00
65897;BME280;52677;50.898;10.854;2023-05-19T02:34:38;99377.75;;;6.02;100.00
65897;BME280;52677;50.898;10.854;2023-05-19T02:36:40;99371.47;;;6.01;100.00
65897;BME280;52677;50.898;10.854;2023-05-19T02:38:42;99376.47;;;5.99;100.00
65897;BME280;52677;50.898;10.854;2023-05-19T02:40:42;99371.78;;;6.00;100.00
65897;BME280;52677;50.898;10.854;2023-05-19T02:42:42;99374.53;;;6.00;100.00
65897;BME280;52677;50.898;10.854;2023-05-19T02:44:42;99379.25;;;5.90;100.00
65897;BME280;52677;50.898;10.854;2023-05-19T02:46:43;99372.91;;;5.90;100.00
65897;BME280;52677;50.898;10.854;2023-05-19T02:48:43;99372.75;;;5.86;100.00
65897;BME280;52677;50.898;10.854;2023-05-19T02:50:43;99375.00;;;5.84;100.00
65897;BME280;52677;50.898;10.854;2023-05-19T02:52:44;99365.50;;;5.82;100.00
65897;BME280;52677;50.898;10.854;2023-05-19T02:54:44;99370.19;;;5.81;100.00
65897;BME280;52677;50.898;10.854;2023-05-19T02:56:44;99363.53;;;5.82;100.00
65897;BME280;52677;50.898;10.854;2023-05-19T02:58:45;99366.28;;;5.82;100.00
65897;BME280;52677;50.898;10.854;2023-05-19T03:00:45;99363.88;;;5.89;100.00
65897;BME280;52677;50.898;10.854;2023-05-19T03:02:45;99372.75;;;5.95;100.00
65897;BME280;52677;50.898;10.854;2023-05-19T03:04:45;99371.00;;;5.90;100.00
65897;BME280;52677;50.898;10.854;2023-05-19T03:06:46;99374.69;;;5.86;100.00
65897;BME280;52677;50.898;10.854;2023-05-19T03:08:46;99362.56;;;5.78;100.00
65897;BME280;52677;50.898;10.854;2023-05-19T03:10:47;99369.19;;;5.77;100.00
65897;BME280;52677;50.898;10.854;2023-05-19T03:12:47;99370.66;;;5.75;100.00
65897;BME280;52677;50.898;10.854;2023-05-19T03:14:47;99377.91;;;5.71;100.00
65897;BME280;52677;50.898;10.854;2023-05-19T03:16:47;99372.75;;;5.69;100.00
65897;BME280;52677;50.898;10.854;2023-05-19T03:18:48;99378.56;;;5.68;100.00
65897;BME280;52677;50.898;10.854;2023-05-19T03:20:49;99374.53;;;5.65;100.00
65897;BME280;52677;50.898;10.854;2023-05-19T03:22:49;99362.25;;;5.62;100.00
65897;BME280;52677;50.898;10.854;2023-05-19T03:24:50;99359.50;;;5.62;100.00
65897;BME280;52677;50.898;10.854;2023-05-19T03:26:52;99373.56;;;5.61;100.00
65897;BME280;52677;50.898;10.854;2023-05-19T03:28:52;99369.53;;;5.58;100.00
65897;BME280;52677;50.898;10.854;2023-05-19T03:30:53;99369.06;;;5.56;100.00
65897;BME280;52677;50.898;10.854;2023-05-19T03:32:53;99377.13;;;5.61;100.00
65897;BME280;52677;50.898;10.854;2023-05-19T03:34:53;99376.50;;;5.64;100.00
65897;BME280;52677;50.898;10.854;2023-05-19T03:36:54;99363.72;;;5.69;100.00
65897;BME280;52677;50.898;10.854;2023-05-19T03:38:54;99373.56;;;5.70;100.00
65897;BME280;52677;50.898;10.854;2023-05-19T03:40:54;99372.75;;;5.69;100.00
65897;BME280;52677;50.898;10.854;2023-05-19T03:42:55;99377.09;;;5.70;100.00
65897;BME280;52677;50.898;10.854;2023-05-19T03:44:55;99374.88;;;5.72;100.00
65897;BME280;52677;50.898;10.854;2023-05-19T03:46:56;99379.22;;;5.73;100.00
65897;BME280;52677;50.898;10.854;2023-05-19T03:48:56;99373.75;;;5.73;100.00
65897;BME280;52677;50.898;10.854;2023-05-19T03:50:56;99378.41;;;5.73;100.00
65897;BME280;52677;50.898;10.854;2023-05-19T03:52:57;99368.56;;;5.72;100.00
65897;BME280;52677;50.898;10.854;2023-05-19T03:54:57;99370.81;;;5.70;100.00
65897;BME280;52677;50.898;10.854;2023-05-19T03:56:57;99378.44;;;5.64;100.00
65897;BME280;52677;50.898;10.854;2023-05-19T03:58:58;99371.16;;;5.59;100.00
65897;BME280;52677;50.898;10.854;2023-05-19T04:00:58;99377.91;;;5.53;100.00
65897;BME280;52677;50.898;10.854;2023-05-19T04:02:58;99370.19;;;5.47;100.00
65897;BME280;52677;50.898;10.854;2023-05-19T04:04:59;99376.63;;;5.42;100.00
65897;BME280;52677;50.898;10.854;2023-05-19T04:06:59;99378.44;;;5.38;100.00
65897;BME280;52677;50.898;10.854;2023-05-19T04:09:01;99377.59;;;5.38;100.00
65897;BME280;52677;50.898;10.854;2023-05-19T04:11:01;99378.91;;;5.40;100.00
65897;BME280;52677;50.898;10.854;2023-05-19T04:13:01;99376.78;;;5.46;100.00
65897;BME280;52677;50.898;10.854;2023-05-19T04:15:02;99376.16;;;5.40;100.00
65897;BME280;52677;50.898;10.854;2023-05-19T04:17:03;99382.94;;;5.34;100.00
65897;BME280;52677;50.898;10.854;2023-05-19T04:19:03;99383.41;;;5.27;100.00
65897;BME280;52677;50.898;10.854;2023-05-19T04:21:04;99384.03;;;5.24;100.00
65897;BME280;52677;50.898;10.854;2023-05-19T04:23:04;99379.03;;;5.26;100.00
65897;BME280;52677;50.898;10.854;2023-05-19T04:25:05;99382.94;;;5.34;100.00
65897;BME280;52677;50.898;10.854;2023-05-19T04:27:06;99390.03;;;5.44;100.00
65897;BME280;52677;50.898;10.854;2023-05-19T04:29:11;99387.63;;;5.51;100.00
65897;BME280;52677;50.898;10.854;2023-05-19T04:31:13;99384.72;;;5.47;100.00
65897;BME280;52677;50.898;10.854;2023-05-19T04:33:13;99385.69;;;5.43;100.00
65897;BME280;52677;50.898;10.854;2023-05-19T04:35:14;99388.75;;;5.41;100.00
65897;BME280;52677;50.898;10.854;2023-05-19T04:37:16;99379.84;;;5.35;100.00
65897;BME280;52677;50.898;10.854;2023-05-19T04:39:16;99387.59;;;5.33;100.00
65897;BME280;52677;50.898;10.854;2023-05-19T04:41:17;99398.91;;;5.32;100.00
65897;BME280;52677;50.898;10.854;2023-05-19T04:43:17;99388.25;;;5.30;100.00
65897;BME280;52677;50.898;10.854;2023-05-19T04:45:18;99389.06;;;5.31;100.00
65897;BME280;52677;50.898;10.854;2023-05-19T04:47:19;99385.81;;;5.29;100.00
65897;BME280;52677;50.898;10.854;2023-05-19T04:49:20;99387.28;;;5.35;100.00
65897;BME280;52677;50.898;10.854;2023-05-19T04:51:20;99387.94;;;5.41;100.00
65897;BME280;52677;50.898;10.854;2023-05-19T04:53:21;99390.22;;;5.47;100.00
65897;BME280;52677;50.898;10.854;2023-05-19T04:55:21;99389.56;;;5.50;100.00
65897;BME280;52677;50.898;10.854;2023-05-19T04:57:22;99390.38;;;5.51;100.00
65897;BME280;52677;50.898;10.854;2023-05-19T04:59:22;99395.38;;;5.57;100.00
65897;BME280;52677;50.898;10.854;2023-05-19T05:01:22;99386.00;;;5.58;100.00
65897;BME280;52677;50.898;10.854;2023-05-19T05:03:25;99386.47;;;5.60;100.00
65897;BME280;52677;50.898;10.854;2023-05-19T05:05:25;99384.22;;;5.62;100.00
65897;BME280;52677;50.898;10.854;2023-05-19T05:07:25;99390.69;;;5.67;100.00
65897;BME280;52677;50.898;10.854;2023-05-19T05:09:26;99396.19;;;5.75;100.00
65897;BME280;52677;50.898;10.854;2023-05-19T05:11:26;99388.09;;;5.79;100.00
65897;BME280;52677;50.898;10.854;2023-05-19T05:13:27;99388.09;;;5.87;100.00
65897;BME280;52677;50.898;10.854;2023-05-19T05:15:27;99388.59;;;5.98;100.00
65897;BME280;52677;50.898;10.854;2023-05-19T05:17:29;99390.53;;;6.06;100.00
65897;BME280;52677;50.898;10.854;2023-05-19T05:19:29;99393.41;;;6.18;100.00
65897;BME280;52677;50.898;10.854;2023-05-19T05:21:30;99381.59;;;6.27;100.00
65897;BME280;52677;50.898;10.854;2023-05-19T05:23:31;99386.25;;;6.35;100.00
65897;BME280;52677;50.898;10.854;2023-05-19T05:25:32;99392.84;;;6.42;100.00
65897;BME280;52677;50.898;10.854;2023-05-19T05:27:32;99394.44;;;6.52;100.00
65897;BME280;52677;50.898;10.854;2023-05-19T05:29:33;99387.00;;;6.53;100.00
65897;BME280;52677;50.898;10.854;2023-05-19T05:31:33;99386.81;;;6.58;100.00
65897;BME280;52677;50.898;10.854;2023-05-19T05:33:33;99392.47;;;6.61;100.00
65897;BME280;52677;50.898;10.854;2023-05-19T05:35:33;99390.50;;;6.70;100.00
65897;BME280;52677;50.898;10.854;2023-05-19T05:37:34;99389.16;;;6.76;100.00
65897;BME280;52677;50.898;10.854;2023-05-19T05:39:34;99391.53;;;6.87;100.00
65897;BME280;52677;50.898;10.854;2023-05-19T05:41:34;99385.88;;;6.92;100.00
65897;BME280;52677;50.898;10.854;2023-05-19T05:43:35;99392.13;;;7.01;100.00
65897;BME280;52677;50.898;10.854;2023-05-19T05:45:35;99387.38;;;7.10;100.00
65897;BME280;52677;50.898;10.854;2023-05-19T05:47:36;99388.47;;;7.18;100.00
65897;BME280;52677;50.898;10.854;2023-05-19T05:49:38;99390.16;;;7.31;100.00
65897;BME280;52677;50.898;10.854;2023-05-19T05:51:39;99392.88;;;7.40;100.00
65897;BME280;52677;50.898;10.854;2023-05-19T05:53:40;99399.44;;;7.47;100.00
65897;BME280;52677;50.898;10.854;2023-05-19T05:55:45;99392.41;;;7.58;100.00
65897;BME280;52677;50.898;10.854;2023-05-19T05:57:45;99396.38;;;7.70;100.00
65897;BME280;52677;50.898;10.854;2023-05-19T05:59:47;99401.59;;;7.83;100.00
65897;BME280;52677;50.898;10.854;2023-05-19T06:01:48;99397.94;;;7.92;100.00
65897;BME280;52677;50.898;10.854;2023-05-19T06:03:48;99399.28;;;8.06;100.00
65897;BME280;52677;50.898;10.854;2023-05-19T06:05:48;99406.53;;;8.11;100.00
65897;BME280;52677;50.898;10.854;2023-05-19T06:07:49;99404.50;;;8.20;100.00
65897;BME280;52677;50.898;10.854;2023-05-19T06:09:49;99411.66;;;8.33;100.00
65897;BME280;52677;50.898;10.854;2023-05-19T06:11:49;99400.00;;;8.49;100.00
65897;BME280;52677;50.898;10.854;2023-05-19T06:13:50;99401.41;;;8.55;100.00
65897;BME280;52677;50.898;10.854;2023-05-19T06:15:51;99401.75;;;8.65;100.00
65897;BME280;52677;50.898;10.854;2023-05-19T06:17:51;99397.06;;;8.78;100.00
65897;BME280;52677;50.898;10.854;2023-05-19T06:19:52;99403.41;;;8.79;100.00
65897;BME280;52677;50.898;10.854;2023-05-19T06:21:52;99391.44;;;8.87;100.00
65897;BME280;52677;50.898;10.854;2023-05-19T06:23:52;99404.44;;;8.98;100.00
65897;BME280;52677;50.898;10.854;2023-05-19T06:25:53;99396.16;;;9.11;100.00
65897;BME280;52677;50.898;10.854;2023-05-19T06:27:53;99391.19;;;9.16;100.00
65897;BME280;52677;50.898;10.854;2023-05-19T06:29:54;99392.66;;;9.26;100.00
65897;BME280;52677;50.898;10.854;2023-05-19T06:31:54;99390.84;;;9.30;100.00
65897;BME280;52677;50.898;10.854;2023-05-19T06:33:55;99384.72;;;9.37;100.00
65897;BME280;52677;50.898;10.854;2023-05-19T06:35:55;99384.97;;;9.44;100.00
65897;BME280;52677;50.898;10.854;2023-05-19T06:37:55;99399.44;;;9.53;100.00
65897;BME280;52677;50.898;10.854;2023-05-19T06:39:56;99389.41;;;9.61;100.00
65897;BME280;52677;50.898;10.854;2023-05-19T06:41:56;99392.56;;;9.75;100.00
65897;BME280;52677;50.898;10.854;2023-05-19T06:43:57;99390.38;;;9.80;100.00
65897;BME280;52677;50.898;10.854;2023-05-19T06:45:57;99393.50;;;9.79;100.00
65897;BME280;52677;50.898;10.854;2023-05-19T06:47:57;99393.44;;;9.91;100.00
65897;BME280;52677;50.898;10.854;2023-05-19T06:49:58;99393.75;;;10.02;100.00
65897;BME280;52677;50.898;10.854;2023-05-19T06:51:58;99383.06;;;10.16;100.00
65897;BME280;52677;50.898;10.854;2023-05-19T06:53:58;99386.19;;;10.27;100.00
65897;BME280;52677;50.898;10.854;2023-05-19T06:55:59;99386.34;;;10.34;100.00
65897;BME280;52677;50.898;10.854;2023-05-19T06:57:59;99386.09;;;10.39;98.65
65897;BME280;52677;50.898;10.854;2023-05-19T06:59:59;99387.72;;;10.40;96.58
65897;BME280;52677;50.898;10.854;2023-05-19T07:01:59;99388.88;;;10.39;99.50
65897;BME280;52677;50.898;10.854;2023-05-19T07:04:01;99391.75;;;10.43;99.57
65897;BME280;52677;50.898;10.854;2023-05-19T07:06:02;99387.25;;;10.38;98.18
65897;BME280;52677;50.898;10.854;2023-05-19T07:08:02;99380.22;;;10.40;97.92
65897;BME280;52677;50.898;10.854;2023-05-19T07:10:04;99371.66;;;10.46;97.35
65897;BME280;52677;50.898;10.854;2023-05-19T07:12:05;99381.56;;;10.47;97.94
65897;BME280;52677;50.898;10.854;2023-05-19T07:14:05;99382.19;;;10.56;99.21
65897;BME280;52677;50.898;10.854;2023-05-19T07:16:05;99382.38;;;10.63;97.72
65897;BME280;52677;50.898;10.854;2023-05-19T07:18:06;99376.28;;;10.57;96.87
65897;BME280;52677;50.898;10.854;2023-05-19T07:20:06;99379.63;;;10.63;97.18
65897;BME280;52677;50.898;10.854;2023-05-19T07:22:09;99377.09;;;10.74;98.42
65897;BME280;52677;50.898;10.854;2023-05-19T07:24:09;99380.78;;;10.78;95.63
65897;BME280;52677;50.898;10.854;2023-05-19T07:26:09;99386.50;;;10.85;96.36
65897;BME280;52677;50.898;10.854;2023-05-19T07:28:09;99386.22;;;10.90;97.71
65897;BME280;52677;50.898;10.854;2023-05-19T07:30:11;99382.88;;;11.00;97.98
65897;BME280;52677;50.898;10.854;2023-05-19T07:32:11;99376.72;;;11.07;97.35
65897;BME280;52677;50.898;10.854;2023-05-19T07:34:11;99372.91;;;11.11;96.84
65897;BME280;52677;50.898;10.854;2023-05-19T07:36:12;99377.09;;;11.05;94.60
65897;BME280;52677;50.898;10.854;2023-05-19T07:38:12;99373.59;;;11.08;94.37
65897;BME280;52677;50.898;10.854;2023-05-19T07:40:13;99374.69;;;11.04;96.20
65897;BME280;52677;50.898;10.854;2023-05-19T07:42:13;99373.78;;;11.00;93.84
65897;BME280;52677;50.898;10.854;2023-05-19T07:44:13;99368.59;;;10.98;95.99
65897;BME280;52677;50.898;10.854;2023-05-19T07:46:14;99366.00;;;11.05;98.29
65897;BME280;52677;50.898;10.854;2023-05-19T07:48:14;99368.34;;;11.03;94.92
65897;BME280;52677;50.898;10.854;2023-05-19T07:50:17;99364.66;;;11.15;97.06
65897;BME280;52677;50.898;10.854;2023-05-19T07:52:17;99375.53;;;11.23;94.38
65897;BME280;52677;50.898;10.854;2023-05-19T07:54:18;99368.19;;;11.31;92.45
65897;BME280;52677;50.898;10.854;2023-05-19T07:56:19;99366.31;;;11.35;93.29
65897;BME280;52677;50.898;10.854;2023-05-19T07:58:20;99371.28;;;11.45;96.20
65897;BME280;52677;50.898;10.854;2023-05-19T08:00:21;99366.78;;;11.57;93.05
65897;BME280;52677;50.898;10.854;2023-05-19T08:02:21;99363.94;;;11.72;92.00
65897;BME280;52677;50.898;10.854;2023-05-19T08:04:21;99348.53;;;11.75;91.34
65897;BME280;52677;50.898;10.854;2023-05-19T08:06:22;99351.59;;;11.86;92.23
65897;BME280;52677;50.898;10.854;2023-05-19T08:08:24;99353.91;;;12.03;93.00
65897;BME280;52677;50.898;10.854;2023-05-19T08:10:24;99354.53;;;12.16;90.36
65897;BME280;52677;50.898;10.854;2023-05-19T08:12:25;99363.09;;;12.26;91.86
65897;BME280;52677;50.898;10.854;2023-05-19T08:14:25;99362.94;;;12.19;89.78
65897;BME280;52677;50.898;10.854;2023-05-19T08:16:26;99365.91;;;12.30;91.05
65897;BME280;52677;50.898;10.854;2023-05-19T08:18:27;99368.03;;;12.36;91.49
65897;BME280;52677;50.898;10.854;2023-05-19T08:20:27;99354.56;;;12.38;90.07
65897;BME280;52677;50.898;10.854;2023-05-19T08:22:27;99351.31;;;12.33;89.69
65897;BME280;52677;50.898;10.854;2023-05-19T08:24:28;99351.41;;;12.40;93.42
65897;BME280;52677;50.898;10.854;2023-05-19T08:26:33;99349.31;;;12.56;90.41
65897;BME280;52677;50.898;10.854;2023-05-19T08:28:33;99348.28;;;12.64;93.97
65897;BME280;52677;50.898;10.854;2023-05-19T08:30:33;99344.81;;;12.71;91.82
65897;BME280;52677;50.898;10.854;2023-05-19T08:32:34;99337.84;;;12.81;93.19
65897;BME280;52677;50.898;10.854;2023-05-19T08:34:34;99342.47;;;12.96;94.93
65897;BME280;52677;50.898;10.854;2023-05-19T08:36:35;99333.16;;;13.11;92.84
65897;BME280;52677;50.898;10.854;2023-05-19T08:38:35;99336.50;;;13.20;91.18
65897;BME280;52677;50.898;10.854;2023-05-19T08:40:36;99336.13;;;13.22;89.11
65897;BME280;52677;50.898;10.854;2023-05-19T08:42:40;99329.16;;;13.09;88.03
65897;BME280;52677;50.898;10.854;2023-05-19T08:44:40;99322.75;;;13.05;90.30
65897;BME280;52677;50.898;10.854;2023-05-19T08:46:42;99323.72;;;13.16;91.94
65897;BME280;52677;50.898;10.854;2023-05-19T08:48:43;99319.03;;;13.20;92.69
65897;BME280;52677;50.898;10.854;2023-05-19T08:50:59;99319.44;;;13.22;89.32
65897;BME280;52677;50.898;10.854;2023-05-19T08:53:08;99312.88;;;13.34;92.53
65897;BME280;52677;50.898;10.854;2023-05-19T08:55:19;99323.72;;;13.42;91.21
65897;BME280;52677;50.898;10.854;2023-05-19T08:57:26;99319.06;;;13.50;90.03
65897;BME280;52677;50.898;10.854;2023-05-19T08:59:27;99310.06;;;13.60;88.67
65897;BME280;52677;50.898;10.854;2023-05-19T09:01:28;99310.16;;;13.71;88.95
65897;BME280;52677;50.898;10.854;2023-05-19T09:03:31;99305.91;;;13.81;90.32
65897;BME280;52677;50.898;10.854;2023-05-19T09:05:37;99312.84;;;13.94;91.65
65897;BME280;52677;50.898;10.854;2023-05-19T09:07:38;99303.50;;;14.13;87.80
65897;BME280;52677;50.898;10.854;2023-05-19T09:09:41;99309.63;;;14.29;88.33
65897;BME280;52677;50.898;10.854;2023-05-19T09:11:45;99296.56;;;14.37;85.56
65897;BME280;52677;50.898;10.854;2023-05-19T09:13:46;99307.47;;;14.52;86.03
65897;BME280;52677;50.898;10.854;2023-05-19T09:15:49;99292.59;;;14.38;83.61
65897;BME280;52677;50.898;10.854;2023-05-19T09:17:49;99286.97;;;14.30;83.96
65897;BME280;52677;50.898;10.854;2023-05-19T09:19:50;99294.44;;;14.23;84.72
65897;BME280;52677;50.898;10.854;2023-05-19T09:22:00;99285.28;;;14.22;84.46
65897;BME280;52677;50.898;10.854;2023-05-19T09:24:06;99288.69;;;14.05;85.77
65897;BME280;52677;50.898;10.854;2023-05-19T09:26:06;99291.38;;;13.94;81.39
65897;BME280;52677;50.898;10.854;2023-05-19T09:28:07;99289.59;;;13.75;83.46
65897;BME280;52677;50.898;10.854;2023-05-19T09:30:08;99285.63;;;13.76;83.96
65897;BME280;52677;50.898;10.854;2023-05-19T09:32:09;99290.03;;;13.81;81.19
65897;BME280;52677;50.898;10.854;2023-05-19T09:34:12;99292.94;;;13.92;82.82
65897;BME280;52677;50.898;10.854;2023-05-19T09:36:14;99297.03;;;14.01;80.67
65897;BME280;52677;50.898;10.854;2023-05-19T09:38:17;99289.06;;;14.00;81.50
65897;BME280;52677;50.898;10.854;2023-05-19T09:40:18;99294.00;;;14.17;84.69
65897;BME280;52677;50.898;10.854;2023-05-19T09:42:25;99289.78;;;14.34;85.91
65897;BME280;52677;50.898;10.854;2023-05-19T09:44:26;99284.44;;;14.55;82.57
65897;BME280;52677;50.898;10.854;2023-05-19T09:46:30;99294.97;;;14.36;78.19
65897;BME280;52677;50.898;10.854;2023-05-19T09:48:32;99296.47;;;14.26;80.39
65897;BME280;52677;50.898;10.854;2023-05-19T09:50:34;99299.41;;;14.44;83.53
65897;BME280;52677;50.898;10.854;2023-05-19T09:52:35;99296.53;;;14.33;80.73
65897;BME280;52677;50.898;10.854;2023-05-19T09:54:36;99288.38;;;14.51;81.55
65897;BME280;52677;50.898;10.854;2023-05-19T09:56:36;99288.84;;;14.56;80.62
65897;BME280;52677;50.898;10.854;2023-05-19T09:58:40;99283.81;;;14.76;81.94
65897;BME280;52677;50.898;10.854;2023-05-19T10:00:41;99288.50;;;14.65;78.65
65897;BME280;52677;50.898;10.854;2023-05-19T10:02:43;99282.16;;;14.68;77.26
65897;BME280;52677;50.898;10.854;2023-05-19T10:04:45;99274.59;;;14.65;76.37
65897;BME280;52677;50.898;10.854;2023-05-19T10:06:47;99274.28;;;14.81;79.04
65897;BME280;52677;50.898;10.854;2023-05-19T10:08:53;99274.44;;;15.02;78.68
65897;BME280;52677;50.898;10.854;2023-05-19T10:10:53;99272.84;;;15.01;77.64
65897;BME280;52677;50.898;10.854;2023-05-19T10:12:55;99275.38;;;15.28;79.68
65897;BME280;52677;50.898;10.854;2023-05-19T10:14:55;99271.25;;;15.04;75.38
65897;BME280;52677;50.898;10.854;2023-05-19T10:16:57;99267.41;;;15.30;79.09
65897;BME280;52677;50.898;10.854;2023-05-19T10:18:58;99267.06;;;15.31;75.20
65897;BME280;52677;50.898;10.854;2023-05-19T10:20:59;99274.44;;;15.06;74.31
65897;BME280;52677;50.898;10.854;2023-05-19T10:22:59;99273.63;;;15.02;73.73
65897;BME280;52677;50.898;10.854;2023-05-19T10:25:02;99265.63;;;14.97;73.24
65897;BME280;52677;50.898;10.854;2023-05-19T10:27:14;99259.81;;;15.20;76.91
65897;BME280;52677;50.898;10.854;2023-05-19T10:29:19;99268.97;;;15.20;74.94
65897;BME280;52677;50.898;10.854;2023-05-19T10:31:22;99257.66;;;14.92;74.17
65897;BME280;52677;50.898;10.854;2023-05-19T10:33:35;99247.31;;;14.96;79.08
65897;BME280;52677;50.898;10.854;2023-05-19T10:36:01;99259.66;;;14.95;75.27
65897;BME280;52677;50.898;10.854;2023-05-19T10:38:23;99251.97;;;14.77;76.00
65897;BME280;52677;50.898;10.854;2023-05-19T10:40:29;99258.00;;;14.86;76.73
65897;BME280;52677;50.898;10.854;2023-05-19T10:46:44;99249.50;;;15.27;78.17
65897;BME280;52677;50.898;10.854;2023-05-19T10:48:45;99255.06;;;15.24;75.45
65897;BME280;52677;50.898;10.854;2023-05-19T10:50:46;99249.03;;;15.14;74.36
65897;BME280;52677;50.898;10.854;2023-05-19T10:52:52;99249.75;;;15.04;74.39